Terminal Aerodrome Forecast
Issued by NWS

Current Version | Previous Version | Text Only | Print | Product List | Glossary Off
Versions: 1 2 3 4 5 6 7 8 9 10 11 12 13 14 15 16 17 18 19

000
FTUS41 KILN 221121
TAFLUK
TAF
KLUK 221121Z 2212/2312 00000KT 6SM BR SCT150 OVC250
     FM221400 23005KT P6SM VCTS SCT040CB BKN120
     FM230100 13003KT P6SM SCT250
     FM230600 00000KT 4SM BR SCT250=

USA.gov is the U.S. government's official web portal to all federal, state and local government web resources and services.